Time;durP1;ratioP1;P1;durP2;ratioP2;P2;SDS_P1;SDS_P2;PMS_P1;PMS_P2;Temp;Humidity;BMP_temperature;BMP_pressure;BME280_temperature;BME280_humidity;BME280_pressure;Samples;Min_cycle;Max_cycle;Signal;HPM_P1;HPM_P2
2021/03/25 00:02:14;;;;;;;8.00;4.82;;;;;;;30.81;50.71;100979.16;5035137;28;66022;-27
2021/03/25 00:04:44;;;;;;;9.52;4.50;;;;;;;30.81;50.82;100985.41;5034723;28;69331;-27
2021/03/25 00:07:13;;;;;;;9.55;4.63;;;;;;;30.83;50.77;100987.91;5034539;28;66234;-28
2021/03/25 00:09:42;;;;;;;8.88;4.70;;;;;;;30.87;51.68;100986.41;5036629;28;70041;-28
2021/03/25 00:12:12;;;;;;;6.18;4.50;;;;;;;30.89;51.51;100992.47;5035538;27;67105;-27
2021/03/25 00:14:42;;;;;;;6.88;5.35;;;;;;;30.93;51.31;100993.69;5033942;28;69947;-28
2021/03/25 00:17:13;;;;;;;6.50;4.80;;;;;;;31.08;51.60;101002.34;5035670;28;65583;-28
2021/03/25 00:19:42;;;;;;;9.80;4.60;;;;;;;31.21;51.45;101006.03;5013937;28;69979;-27
2021/03/25 00:22:12;;;;;;;13.00;4.65;;;;;;;31.25;51.96;101010.75;5030046;28;66640;-28
2021/03/25 00:24:42;;;;;;;9.32;4.75;;;;;;;31.31;52.03;101017.19;5034501;28;69739;-28
2021/03/25 00:27:11;;;;;;;12.93;4.50;;;;;;;31.31;52.73;101018.00;5035825;28;66095;-27
2021/03/25 00:29:41;;;;;;;18.20;5.03;;;;;;;31.38;52.83;101023.44;5032447;28;69273;-28
2021/03/25 00:32:10;;;;;;;15.35;4.57;;;;;;;31.44;52.00;101027.13;5033834;28;66393;-27
2021/03/25 00:34:40;;;;;;;14.55;4.15;;;;;;;31.45;52.08;101042.34;5031846;28;69921;-28
2021/03/25 00:37:09;;;;;;;8.55;4.22;;;;;;;31.47;51.46;101037.53;5030398;28;65403;-27
2021/03/25 00:39:39;;;;;;;21.70;4.20;;;;;;;31.49;51.54;101044.41;5028535;28;69202;-26
2021/03/25 00:42:09;;;;;;;10.27;4.00;;;;;;;31.49;51.55;101041.69;5059424;28;65885;-28
2021/03/25 00:44:38;;;;;;;9.95;3.33;;;;;;;31.46;51.46;101042.13;5027862;28;70144;-30
2021/03/25 00:47:08;;;;;;;8.50;3.20;;;;;;;31.56;51.53;101063.31;5047786;28;64972;-28
2021/03/25 00:49:37;;;;;;;5.80;3.10;;;;;;;31.52;50.84;101056.69;5041236;28;70214;-27
2021/03/25 00:52:07;;;;;;;5.72;2.60;;;;;;;31.57;50.49;101065.00;5034670;28;65858;-31
2021/03/25 00:54:38;;;;;;;6.73;2.67;;;;;;;31.57;51.02;101071.25;5042063;28;69310;-27
2021/03/25 00:57:08;;;;;;;7.07;2.60;;;;;;;31.60;50.28;101080.81;5036441;28;66049;-27
2021/03/25 00:59:38;;;;;;;5.65;3.20;;;;;;;31.47;50.76;101057.34;5034488;28;69949;-33
2021/03/25 01:02:09;;;;;;;4.70;3.20;;;;;;;31.64;50.31;101079.31;5033862;28;65406;-27
2021/03/25 01:04:41;;;;;;;8.73;3.00;;;;;;;31.61;50.37;101077.88;5032108;28;70801;-28
2021/03/25 01:07:11;;;;;;;6.47;3.20;;;;;;;31.65;50.44;101078.28;5033212;28;66040;-28
2021/03/25 01:09:40;;;;;;;3.63;2.85;;;;;;;31.67;49.95;101091.59;5046976;28;69354;-27
2021/03/25 01:12:10;;;;;;;7.07;3.25;;;;;;;31.70;49.81;101085.72;5033908;28;66036;-28
2021/03/25 01:14:40;;;;;;;9.25;3.00;;;;;;;31.73;49.60;101090.72;5031349;28;68999;-27
2021/03/25 01:17:12;;;;;;;3.17;2.72;;;;;;;31.75;49.79;101096.75;5033619;28;65991;-27
2021/03/25 01:19:42;;;;;;;6.15;2.50;;;;;;;31.76;49.93;101098.41;5035568;28;70626;-29
2021/03/25 01:22:11;;;;;;;2.35;2.15;;;;;;;31.78;49.29;101109.88;5040754;28;65526;-29
2021/03/25 01:24:41;;;;;;;2.72;2.42;;;;;;;31.77;49.57;101109.03;5039515;28;69890;-28
2021/03/25 01:27:10;;;;;;;2.30;2.10;;;;;;;31.80;49.44;101113.19;5026183;28;65418;-27
2021/03/25 01:29:43;;;;;;;4.55;2.08;;;;;;;31.81;49.23;101120.28;5003904;28;69067;-28
2021/03/25 01:32:12;;;;;;;3.78;1.73;;;;;;;31.79;49.38;101117.81;5028199;28;65747;-26
2021/03/25 01:34:43;;;;;;;1.90;1.70;;;;;;;31.85;49.36;101128.81;5038226;28;69711;-27
2021/03/25 01:37:13;;;;;;;1.65;1.55;;;;;;;31.85;49.19;101129.66;5032528;28;65527;-27
2021/03/25 01:39:56;;;;;;;2.70;1.48;;;;;;;31.88;49.37;101125.66;5027281;28;69992;-28
2021/03/25 01:42:30;;;;;;;2.90;1.38;;;;;;;31.93;49.07;101132.13;5039030;28;66294;-27
2021/03/25 01:45:00;;;;;;;1.70;1.60;;;;;;;31.94;49.26;101136.47;5043665;28;70116;-27
2021/03/25 01:47:30;;;;;;;2.20;1.70;;;;;;;31.95;48.77;101132.69;5041899;28;65509;-28
2021/03/25 01:50:00;;;;;;;5.32;1.88;;;;;;;31.98;48.95;101132.28;5038657;28;70367;-28
2021/03/25 01:52:36;;;;;;;1.60;1.50;;;;;;;32.01;49.18;101131.84;5084587;27;65286;-27
2021/03/25 01:55:32;;;;;;;2.20;1.45;;;;;;;32.01;48.93;101139.97;5023411;28;69271;-28
2021/03/25 01:58:16;;;;;;;1.83;1.38;;;;;;;31.88;48.77;101115.63;5039596;28;65980;-27
2021/03/25 02:01:19;;;;;;;2.15;1.95;;;;;;;32.00;48.82;101140.19;5016900;28;70095;-28
2021/03/25 02:04:13;;;;;;;3.08;1.40;;;;;;;32.01;48.52;101139.97;5034979;28;66133;-27
2021/03/25 02:07:07;;;;;;;1.90;1.38;;;;;;;32.04;48.84;101136.81;5025007;28;70018;-27
2021/03/25 02:09:41;;;;;;;1.33;1.20;;;;;;;32.11;48.40;101130.50;5031257;28;67143;-27
2021/03/25 02:12:48;;;;;;;2.08;1.30;;;;;;;32.12;48.33;101126.72;5036039;28;69253;-32
2021/03/25 02:15:39;;;;;;;2.22;1.42;;;;;;;32.11;48.50;101125.91;5024111;28;66298;-29
2021/03/25 02:18:26;;;;;;;1.92;1.42;;;;;;;32.03;48.57;101113.44;5033674;28;69223;-27
2021/03/25 02:21:16;;;;;;;1.38;0.90;;;;;;;32.20;47.85;101126.44;5035597;28;65478;-28
2021/03/25 02:24:22;;;;;;;1.23;1.10;;;;;;;32.18;47.88;101128.53;5035535;28;69769;-27
2021/03/25 02:27:26;;;;;;;4.47;1.17;;;;;;;32.13;48.28;101101.25;5036896;28;65408;-27
2021/03/25 02:30:16;;;;;;;3.60;1.00;;;;;;;32.27;48.07;101124.50;5033301;28;70085;-27
2021/03/25 02:33:12;;;;;;;0.85;0.75;;;;;;;32.30;47.84;101106.94;5049583;28;65246;-28
2021/03/25 02:35:52;;;;;;;1.30;0.82;;;;;;;32.35;47.42;101110.63;5032395;28;69929;-28
2021/03/25 02:38:38;;;;;;;3.08;0.90;;;;;;;32.36;47.83;101114.19;5034882;28;65322;-28
2021/03/25 02:41:27;;;;;;;1.23;0.82;;;;;;;32.26;47.68;101099.25;5035767;28;69207;-28
2021/03/25 02:44:03;;;;;;;1.52;0.90;;;;;;;32.32;47.49;101093.94;5036183;28;65298;-28
2021/03/25 02:46:47;;;;;;;1.00;0.80;;;;;;;32.44;47.34;101106.56;5034841;28;69831;-29
2021/03/25 02:49:21;;;;;;;2.45;1.02;;;;;;;32.52;47.60;101099.22;5033631;28;65161;-28
2021/03/25 02:52:21;;;;;;;2.55;0.95;;;;;;;32.47;47.27;101095.28;5034929;28;69847;-27
2021/03/25 02:55:05;;;;;;;1.42;1.10;;;;;;;32.57;47.45;101108.34;5027652;28;65930;-27
2021/03/25 02:57:54;;;;;;;1.17;0.90;;;;;;;32.58;47.00;101098.31;5035128;28;69830;-26
2021/03/25 03:00:41;;;;;;;1.20;0.70;;;;;;;32.52;47.36;101077.50;5030838;28;66179;-29
2021/03/25 03:03:19;;;;;;;1.48;1.05;;;;;;;32.63;47.09;101101.16;5024102;28;69377;-28
2021/03/25 03:06:35;;;;;;;0.93;0.75;;;;;;;32.64;47.12;101097.38;5013905;28;65701;-27
2021/03/25 03:09:18;;;;;;;3.33;0.70;;;;;;;32.69;46.86;101086.69;5032052;28;70112;-29
2021/03/25 03:11:55;;;;;;;1.05;0.70;;;;;;;32.76;46.66;101089.28;5061963;28;65539;-27
2021/03/25 03:14:34;;;;;;;1.10;0.73;;;;;;;32.74;46.78;101086.81;5049338;28;69733;-28
2021/03/25 03:17:08;;;;;;;1.15;0.80;;;;;;;32.81;46.46;101087.56;5036124;28;65410;-28
2021/03/25 03:19:52;;;;;;;1.15;0.85;;;;;;;32.80;46.43;101075.03;5019426;28;69844;-28
2021/03/25 03:22:22;;;;;;;0.95;0.85;;;;;;;32.86;46.69;101070.56;5029419;28;66132;-29
2021/03/25 03:24:58;;;;;;;0.95;0.70;;;;;;;32.87;46.67;101069.50;5039113;28;70227;-28
2021/03/25 03:27:43;;;;;;;0.93;0.80;;;;;;;32.87;46.95;101067.59;5029357;28;66067;-28
2021/03/25 03:30:20;;;;;;;1.35;0.70;;;;;;;32.91;46.55;101057.97;5042516;28;69934;-28
2021/03/25 03:33:09;;;;;;;1.40;0.80;;;;;;;32.92;46.53;101048.75;5034948;28;66158;-28
2021/03/25 03:35:51;;;;;;;2.05;1.10;;;;;;;32.97;46.45;101053.50;5033892;28;69262;-28
2021/03/25 03:38:44;;;;;;;3.20;0.70;;;;;;;33.00;46.76;101044.91;5035178;28;66297;-28
2021/03/25 03:41:28;;;;;;;1.67;0.70;;;;;;;33.03;46.59;101041.72;5026065;28;70356;-28
2021/03/25 03:44:03;;;;;;;2.08;0.77;;;;;;;33.05;46.53;101033.34;5034829;28;66046;-29
2021/03/25 03:46:36;;;;;;;1.13;0.88;;;;;;;33.03;46.49;101019.97;5022954;28;69888;-29
2021/03/25 03:49:20;;;;;;;1.90;0.90;;;;;;;32.87;46.18;100994.25;5022078;28;66464;-28
2021/03/25 03:52:06;;;;;;;0.88;0.80;;;;;;;33.11;46.49;101014.22;5026426;28;69244;-28
2021/03/25 03:54:43;;;;;;;1.50;1.20;;;;;;;33.10;46.36;101004.41;5021957;28;65485;-28
2021/03/25 03:57:25;;;;;;;0.73;0.70;;;;;;;33.12;46.06;101012.31;5032503;28;70769;-28
2021/03/25 04:00:46;;;;;;;1.25;1.00;;;;;;;33.19;46.49;101006.81;5036859;28;66160;-28
2021/03/25 04:03:21;;;;;;;2.38;1.10;;;;;;;33.19;45.97;100996.75;5012003;28;70114;-28
2021/03/25 04:06:28;;;;;;;3.30;1.30;;;;;;;33.16;45.96;100986.34;5033160;28;65649;-28
2021/03/25 04:09:37;;;;;;;1.15;1.00;;;;;;;33.26;46.02;100986.59;5029916;28;69261;-27
2021/03/25 04:12:29;;;;;;;3.90;0.80;;;;;;;33.32;45.53;100980.22;5032450;28;66596;-27
2021/03/25 04:15:08;;;;;;;3.33;0.90;;;;;;;33.31;45.91;100978.56;5033227;28;70383;-28
2021/03/25 04:17:51;;;;;;;2.65;0.90;;;;;;;33.26;45.94;100947.69;5015138;28;66790;-28
2021/03/25 04:21:01;;;;;;;1.02;0.70;;;;;;;33.31;46.14;100951.38;4992143;28;69394;-29
2021/03/25 04:23:40;;;;;;;1.30;0.73;;;;;;;33.35;46.14;100947.13;5016486;28;66141;-28
2021/03/25 04:26:43;;;;;;;0.77;0.63;;;;;;;33.29;45.74;100948.06;5034077;28;69831;-28
2021/03/25 04:29:35;;;;;;;0.63;0.52;;;;;;;33.41;45.78;100944.53;5028796;28;66807;-28
2021/03/25 04:32:06;;;;;;;2.50;0.90;;;;;;;33.41;45.82;100925.50;5033543;28;70230;-30
2021/03/25 04:34:36;;;;;;;1.35;0.70;;;;;;;33.43;45.64;100936.94;5032436;28;66286;-28
2021/03/25 04:37:07;;;;;;;0.57;0.50;;;;;;;33.45;45.64;100922.06;5032673;28;70126;-28
2021/03/25 04:39:38;;;;;;;;;;;;;;;33.38;45.86;100913.19;5030959;28;66022;-27
2021/03/25 04:42:08;;;;;;;3.42;0.73;;;;;;;33.52;45.42;100914.66;5032817;28;69564;-28
2021/03/25 04:44:48;;;;;;;1.55;0.80;;;;;;;33.54;45.50;100903.50;5030357;28;66616;-27
2021/03/25 04:47:40;;;;;;;1.23;0.60;;;;;;;33.56;45.67;100887.78;5032778;27;70315;-29
2021/03/25 04:50:52;;;;;;;2.25;0.80;;;;;;;33.52;45.60;100886.59;5062329;28;66235;-29
2021/03/25 04:53:34;;;;;;;1.13;0.57;;;;;;;33.65;45.41;100870.03;5021933;28;69282;-27
2021/03/25 04:56:10;;;;;;;2.42;0.70;;;;;;;33.62;45.40;100864.25;5031643;28;65210;-29
2021/03/25 04:58:46;;;;;;;1.17;0.60;;;;;;;33.64;45.50;100857.50;5033439;28;69663;-28
2021/03/25 05:01:27;;;;;;;0.68;0.40;;;;;;;33.50;45.48;100839.75;5028360;28;66534;-32
2021/03/25 05:04:05;;;;;;;0.63;0.40;;;;;;;33.63;45.66;100850.41;5032892;28;70605;-29
2021/03/25 05:06:49;;;;;;;0.50;0.50;;;;;;;33.64;45.48;100841.19;5022507;28;65866;-28
2021/03/25 05:09:22;;;;;;;0.50;0.50;;;;;;;33.72;45.50;100832.66;5033560;28;69554;-28
2021/03/25 05:11:52;;;;;;;3.35;0.50;;;;;;;33.76;45.40;100825.66;5034761;28;65501;-30
2021/03/25 05:14:26;;;;;;;0.70;0.50;;;;;;;33.65;45.27;100803.91;5033018;28;69849;-29
2021/03/25 05:17:13;;;;;;;1.00;0.60;;;;;;;33.72;45.27;100816.31;5038906;28;65950;-28
2021/03/25 05:20:08;;;;;;;0.82;0.60;;;;;;;33.65;45.30;100788.41;5035968;28;69283;-29
2021/03/25 05:23:16;;;;;;;0.52;0.52;;;;;;;33.77;45.09;100802.81;5029166;28;66628;-29
2021/03/25 05:26:01;;;;;;;1.45;0.65;;;;;;;33.78;44.95;100790.88;5030114;28;70473;-28
2021/03/25 05:28:38;;;;;;;1.17;0.47;;;;;;;33.85;45.15;100792.63;5036785;28;65119;-29
2021/03/25 05:31:12;;;;;;;0.70;0.50;;;;;;;33.90;45.20;100784.56;5036944;28;69800;-29
2021/03/25 05:33:47;;;;;;;0.80;0.60;;;;;;;33.93;45.00;100774.00;5037423;28;66104;-29
2021/03/25 05:36:19;;;;;;;0.70;0.50;;;;;;;33.96;44.87;100772.69;5036171;28;69438;-28
2021/03/25 05:38:48;;;;;;;0.65;0.50;;;;;;;33.80;45.35;100747.94;5037571;28;66462;-29
2021/03/25 05:41:35;;;;;;;0.47;0.40;;;;;;;33.89;44.96;100758.41;5036232;28;70387;-29
2021/03/25 05:44:41;;;;;;;1.33;0.50;;;;;;;34.02;44.82;100749.97;5035516;28;66178;-29
2021/03/25 05:47:11;;;;;;;0.75;0.40;;;;;;;34.05;44.92;100740.50;5036149;28;69142;-29
2021/03/25 05:50:03;;;;;;;0.77;0.50;;;;;;;34.03;44.58;100730.66;5037252;28;65970;-30
2021/03/25 05:52:58;;;;;;;2.67;0.47;;;;;;;34.06;44.84;100723.09;5029428;28;69565;-28
2021/03/25 05:55:54;;;;;;;1.02;0.50;;;;;;;34.03;44.94;100724.38;5031060;28;64810;-29
2021/03/25 05:58:35;;;;;;;0.60;0.60;;;;;;;34.03;45.02;100718.94;5036552;28;69115;-27
2021/03/25 06:01:41;;;;;;;0.40;0.40;;;;;;;34.02;44.88;100720.03;5036954;28;65436;-29
2021/03/25 06:04:14;;;;;;;0.50;0.35;;;;;;;34.13;44.81;100711.00;5030930;28;69843;-28
2021/03/25 06:07:05;;;;;;;2.40;0.50;;;;;;;34.13;44.78;100694.66;5036495;28;65432;-27
2021/03/25 06:09:46;;;;;;;0.50;0.40;;;;;;;34.16;44.76;100694.16;5016491;28;69103;-29
2021/03/25 06:12:50;;;;;;;1.83;0.40;;;;;;;34.14;44.65;100701.75;5036092;28;66156;-29
2021/03/25 06:15:43;;;;;;;0.57;0.40;;;;;;;34.19;44.64;100685.50;5025983;28;70489;-28
2021/03/25 06:18:18;;;;;;;0.40;0.35;;;;;;;34.24;44.58;100682.00;5037977;28;65997;-30
2021/03/25 06:21:20;;;;;;;0.60;0.50;;;;;;;34.25;44.52;100676.31;5034474;28;70169;-29
2021/03/25 06:24:21;;;;;;;1.60;0.50;;;;;;;34.34;44.37;100675.91;5015786;28;66102;-27
2021/03/25 06:27:20;;;;;;;0.77;0.43;;;;;;;34.33;44.43;100668.81;5021716;28;68310;-28
2021/03/25 06:29:55;;;;;;;0.80;0.50;;;;;;;34.37;44.23;100659.06;5066914;27;66566;-28
2021/03/25 06:32:53;;;;;;;0.40;0.40;;;;;;;34.38;44.26;100649.81;5023739;28;70445;-28
2021/03/25 06:35:37;;;;;;;0.77;0.32;;;;;;;34.29;44.41;100633.09;5026027;28;66114;-27
2021/03/25 06:38:25;;;;;;;1.73;0.40;;;;;;;34.46;44.35;100646.66;5037377;28;69945;-29
2021/03/25 06:41:01;;;;;;;0.63;0.40;;;;;;;34.40;44.16;100631.34;5025981;28;66498;-28
2021/03/25 06:43:37;;;;;;;0.60;0.40;;;;;;;34.47;44.28;100627.38;5038190;28;69834;-28
2021/03/25 06:46:31;;;;;;;0.40;0.30;;;;;;;34.40;44.15;100613.09;5036317;28;67085;-28
2021/03/25 06:49:10;;;;;;;0.40;0.40;;;;;;;34.52;44.34;100625.78;5037777;28;70381;-28
2021/03/25 06:51:40;;;;;;;1.58;0.35;;;;;;;34.56;44.27;100627.78;5035808;28;66140;-28
2021/03/25 06:54:15;;;;;;;0.30;0.30;;;;;;;34.53;44.16;100617.38;5037000;28;69051;-28
2021/03/25 06:56:50;;;;;;;2.00;0.40;;;;;;;34.55;44.14;100607.06;5037200;28;66579;-29
2021/03/25 06:59:28;;;;;;;0.55;0.30;;;;;;;34.58;44.22;100617.47;5029483;28;68943;-28
2021/03/25 07:02:26;;;;;;;0.47;0.30;;;;;;;34.58;44.16;100616.66;5035029;28;66115;-29
2021/03/25 07:05:00;;;;;;;0.40;0.40;;;;;;;34.52;43.98;100588.50;5034828;28;69254;-28
2021/03/25 07:07:36;;;;;;;2.97;0.60;;;;;;;34.68;43.87;100601.25;5048664;28;65358;-28
2021/03/25 07:10:09;;;;;;;1.95;0.60;;;;;;;34.74;43.86;100580.34;5034565;28;69774;-29
2021/03/25 07:12:43;;;;;;;1.60;0.50;;;;;;;34.80;43.52;100586.66;5034922;27;65837;-28
2021/03/25 07:15:36;;;;;;;1.27;0.60;;;;;;;34.68;43.85;100568.56;5050990;27;70154;-29
2021/03/25 07:18:21;;;;;;;5.97;0.77;;;;;;;34.81;43.67;100599.22;5036933;27;65984;-28
2021/03/25 07:21:27;;;;;;;1.02;0.90;;;;;;;34.78;44.17;100589.66;5036665;28;69448;-30
2021/03/25 07:23:59;;;;;;;2.47;0.80;;;;;;;34.79;43.99;100582.31;5034020;28;65933;-28
2021/03/25 07:26:37;;;;;;;1.23;0.73;;;;;;;34.85;43.94;100592.19;5035762;28;69690;-28
2021/03/25 07:29:12;;;;;;;1.73;1.02;;;;;;;34.85;43.85;100581.28;5034660;28;65412;-28
2021/03/25 07:31:58;;;;;;;3.70;0.50;;;;;;;34.83;44.03;100581.56;5036076;27;69499;-28
2021/03/25 07:34:37;;;;;;;3.00;0.70;;;;;;;34.89;44.02;100568.81;5033769;28;66055;-28
2021/03/25 07:37:10;;;;;;;1.30;0.73;;;;;;;34.95;43.78;100570.50;5034058;28;69157;-28
2021/03/25 07:39:50;;;;;;;2.58;0.90;;;;;;;34.92;43.38;100560.13;5017764;28;65380;-28
2021/03/25 07:42:36;;;;;;;2.08;0.73;;;;;;;35.00;43.70;100565.13;5024253;28;70148;-29
2021/03/25 07:45:24;;;;;;;1.50;0.98;;;;;;;35.07;43.49;100565.75;5035473;28;65595;-28
2021/03/25 07:48:12;;;;;;;1.52;0.70;;;;;;;35.14;43.69;100560.13;5033917;28;70214;-28
2021/03/25 07:50:44;;;;;;;4.75;0.80;;;;;;;35.18;43.81;100550.31;5035901;28;65859;-31
2021/03/25 07:53:30;;;;;;;1.17;0.77;;;;;;;35.20;43.56;100553.63;5034056;28;69799;-28
2021/03/25 07:56:18;;;;;;;1.30;0.85;;;;;;;35.10;43.38;100524.38;5031941;28;66499;-27
2021/03/25 07:59:05;;;;;;;1.70;0.90;;;;;;;35.27;43.55;100539.78;5032241;28;69923;-28
2021/03/25 08:01:34;;;;;;;4.88;0.80;;;;;;;35.28;43.14;100542.25;5031938;28;65430;-28
2021/03/25 08:04:04;;;;;;;1.52;0.77;;;;;;;35.33;43.22;100544.22;5035537;28;69842;-28
2021/03/25 08:06:39;;;;;;;3.15;1.00;;;;;;;35.39;42.86;100539.63;5033820;28;65256;-28
2021/03/25 08:09:16;;;;;;;1.80;0.98;;;;;;;35.28;43.12;100522.34;5033388;28;69761;-29
2021/03/25 08:11:55;;;;;;;3.33;0.63;;;;;;;35.32;43.32;100523.47;5034515;28;65766;-28
2021/03/25 08:14:31;;;;;;;1.58;0.80;;;;;;;35.35;43.38;100533.84;5033454;28;71348;-28
2021/03/25 08:17:10;;;;;;;4.38;0.70;;;;;;;35.49;43.17;100545.97;5034701;28;66628;-27
2021/03/25 08:20:12;;;;;;;2.17;0.88;;;;;;;35.46;43.37;100545.66;5035692;28;70138;-27
2021/03/25 08:22:54;;;;;;;1.48;0.63;;;;;;;35.56;42.97;100546.63;5034152;28;66595;-32
2021/03/25 08:25:23;;;;;;;0.98;0.60;;;;;;;35.57;42.70;100545.53;5035751;28;70327;-28
2021/03/25 08:28:22;;;;;;;1.10;0.60;;;;;;;35.53;42.97;100540.84;5034495;28;65094;-28
2021/03/25 08:31:20;;;;;;;1.63;0.80;;;;;;;35.56;43.21;100535.69;5030426;28;70212;-27
2021/03/25 08:34:11;;;;;;;1.03;0.67;;;;;;;35.61;43.11;100537.66;5026818;28;66442;-28
2021/03/25 08:36:58;;;;;;;0.93;0.60;;;;;;;35.68;43.05;100523.78;5033672;28;69810;-29
2021/03/25 08:39:36;;;;;;;1.10;0.75;;;;;;;35.74;42.93;100530.91;5030814;28;66010;-28
2021/03/25 08:42:18;;;;;;;1.27;0.70;;;;;;;35.71;42.36;100531.44;5025623;28;69720;-29
2021/03/25 08:45:06;;;;;;;2.75;0.82;;;;;;;35.77;42.86;100524.94;5036160;28;66440;-32
2021/03/25 08:48:11;;;;;;;1.92;0.93;;;;;;;35.76;42.87;100529.56;5032136;28;69874;-28
2021/03/25 08:50:50;;;;;;;4.65;0.70;;;;;;;35.82;42.39;100521.41;5038383;28;66747;-28
2021/03/25 08:53:32;;;;;;;1.40;0.70;;;;;;;35.85;42.82;100524.44;5037808;28;70563;-28
2021/03/25 08:56:03;;;;;;;;;;;;;;;35.78;42.68;100534.78;5039590;28;65997;-28
2021/03/25 08:58:36;;;;;;;1.83;0.75;;;;;;;35.93;42.72;100534.06;5038103;28;70244;-29
2021/03/25 09:01:14;;;;;;;2.08;0.70;;;;;;;35.97;42.60;100540.66;5037520;28;66414;-29
2021/03/25 09:03:54;;;;;;;1.67;0.60;;;;;;;36.00;42.04;100535.47;5038015;28;69862;-29
2021/03/25 09:06:28;;;;;;;2.28;0.70;;;;;;;36.05;42.20;100536.56;5037060;28;66003;-32
2021/03/25 09:09:23;;;;;;;1.45;0.70;;;;;;;35.95;42.43;100521.78;5035805;28;69737;-30
2021/03/25 09:11:52;;;;;;;3.70;0.80;;;;;;;36.08;42.38;100538.81;5032419;28;65936;-30
2021/03/25 09:14:25;;;;;;;1.60;0.98;;;;;;;36.11;42.28;100530.06;5038256;28;69874;-31
2021/03/25 09:17:15;;;;;;;0.90;0.60;;;;;;;36.11;42.59;100524.63;5045509;27;65382;-31
2021/03/25 09:19:51;;;;;;;1.30;0.77;;;;;;;36.10;42.49;100533.91;5049295;28;70301;-30
2021/03/25 09:22:44;;;;;;;6.70;0.90;;;;;;;35.95;42.44;100518.25;5037025;28;65431;-29
2021/03/25 09:25:25;;;;;;;1.50;0.80;;;;;;;36.14;41.91;100546.78;5061277;28;69999;-29
2021/03/25 09:28:03;;;;;;;1.77;0.80;;;;;;;36.15;42.06;100536.66;5035985;28;66664;-28
2021/03/25 09:30:35;;;;;;;1.73;0.63;;;;;;;36.13;42.58;100544.28;5032090;28;69807;-29
2021/03/25 09:33:42;;;;;;;5.15;0.90;;;;;;;36.06;42.16;100544.53;5038459;28;66281;-28
2021/03/25 09:36:17;;;;;;;1.25;0.90;;;;;;;36.14;42.12;100545.97;5044684;28;69782;-28
2021/03/25 09:39:23;;;;;;;6.47;1.00;;;;;;;36.05;42.85;100550.22;5049542;28;65909;-28
2021/03/25 09:41:55;;;;;;;1.85;0.85;;;;;;;36.14;42.47;100545.97;5037713;28;69881;-29
2021/03/25 09:44:40;;;;;;;2.20;1.02;;;;;;;36.11;42.57;100551.91;5044834;28;65898;-28
2021/03/25 09:47:37;;;;;;;3.83;0.85;;;;;;;36.06;42.27;100560.94;5047983;28;69925;-29
2021/03/25 09:50:17;;;;;;;2.33;1.02;;;;;;;36.01;42.88;100542.56;5037066;28;66767;-28
2021/03/25 09:53:11;;;;;;;2.80;1.20;;;;;;;36.09;42.13;100554.94;5050474;28;69312;-28
2021/03/25 09:56:00;;;;;;;6.10;1.00;;;;;;;36.08;42.34;100555.19;5038584;28;65484;-29
2021/03/25 09:58:50;;;;;;;1.77;1.10;;;;;;;36.07;42.52;100570.75;5028999;28;70251;-28
2021/03/25 10:01:42;;;;;;;3.58;0.95;;;;;;;36.05;42.70;100582.97;5039571;28;66184;-28
2021/03/25 10:04:29;;;;;;;7.68;1.40;;;;;;;36.09;42.42;100581.41;5037228;28;68975;-28
2021/03/25 10:07:19;;;;;;;1.90;1.13;;;;;;;36.10;42.77;100591.25;5039334;28;66069;-29
2021/03/25 10:09:59;;;;;;;1.35;1.02;;;;;;;36.15;42.69;100594.00;5030483;28;69480;-29
2021/03/25 10:13:00;;;;;;;1.20;0.82;;;;;;;36.02;42.83;100598.81;5044489;27;65377;-29
2021/03/25 10:15:33;;;;;;;2.22;0.90;;;;;;;36.09;42.77;100603.25;5026643;28;69987;-27
2021/03/25 10:18:09;;;;;;;2.08;0.75;;;;;;;36.07;42.47;100599.97;5047847;28;65440;-30
2021/03/25 10:21:00;;;;;;;10.23;2.45;;;;;;;36.02;42.37;100607.00;5011857;28;71009;-31
2021/03/25 10:23:37;;;;;;;15.27;3.47;;;;;;;36.08;42.16;100609.78;5039457;28;66183;-32
2021/03/25 10:26:13;;;;;;;10.43;3.70;;;;;;;36.01;42.64;100605.34;5031827;28;70189;-29
2021/03/25 10:28:46;;;;;;;17.73;5.45;;;;;;;35.98;42.34;100596.88;5054313;28;67037;-28
2021/03/25 10:31:30;;;;;;;9.60;4.55;;;;;;;35.89;42.35;100582.88;5033472;28;69994;-30
2021/03/25 10:34:23;;;;;;;12.70;5.43;;;;;;;35.83;42.66;100589.41;5036811;28;65555;-28
2021/03/25 10:37:23;;;;;;;25.83;7.72;;;;;;;35.76;44.14;100616.91;4999072;28;70089;-30
2021/03/25 10:40:02;;;;;;;20.00;7.60;;;;;;;35.83;44.81;100605.78;5031527;28;66504;-28
2021/03/25 10:42:42;;;;;;;21.60;7.72;;;;;;;35.76;45.97;100603.25;5049100;28;69603;-28
2021/03/25 10:45:29;;;;;;;26.27;7.35;;;;;;;35.75;45.63;100609.81;5073026;27;65279;-29
2021/03/25 10:48:39;;;;;;;24.17;6.40;;;;;;;35.71;45.83;100618.75;5034964;28;69990;-29
2021/03/25 10:51:12;;;;;;;19.42;7.03;;;;;;;35.74;46.21;100612.78;5030282;28;64783;-29
2021/03/25 10:53:54;;;;;;;17.60;7.20;;;;;;;35.72;46.32;100612.25;5027340;28;70277;-29
2021/03/25 10:56:31;;;;;;;20.75;7.25;;;;;;;35.67;46.65;100617.66;5028419;28;66140;-28
2021/03/25 10:59:26;;;;;;;12.15;7.60;;;;;;;35.53;46.36;100601.66;5029342;28;68399;-28
2021/03/25 11:01:59;;;;;;;11.80;7.15;;;;;;;35.62;45.96;100626.59;5066579;27;66009;-29
2021/03/25 11:04:34;;;;;;;21.20;7.57;;;;;;;35.54;45.95;100635.22;5060814;27;72259;-29
2021/03/25 11:07:22;;;;;;;15.43;6.18;;;;;;;35.42;46.45;100643.56;5042022;27;65826;-27
2021/03/25 11:09:54;;;;;;;16.67;7.28;;;;;;;35.39;46.19;100649.53;5037617;28;70607;-32
2021/03/25 11:12:32;;;;;;;17.63;5.80;;;;;;;35.33;46.31;100650.56;5046581;27;66077;-33
2021/03/25 11:15:19;;;;;;;17.52;6.07;;;;;;;35.08;46.52;100632.84;5039110;28;70619;-32
2021/03/25 11:17:49;;;;;;;12.85;7.20;;;;;;;35.28;45.84;100658.69;5039551;28;65238;-35
2021/03/25 11:20:24;;;;;;;15.82;5.90;;;;;;;35.25;46.11;100656.47;5018990;28;43131;-31
2021/03/25 11:22:57;;;;;;;12.98;6.38;;;;;;;35.17;46.06;100662.38;5033327;28;65988;-36
2021/03/25 11:25:30;;;;;;;11.60;6.63;;;;;;;35.13;46.25;100662.03;5068190;27;69910;-32
2021/03/25 11:28:13;;;;;;;13.95;5.95;;;;;;;35.06;46.38;100662.25;5035327;28;65924;-33
2021/03/25 11:30:47;;;;;;;15.90;5.82;;;;;;;35.06;46.38;100675.06;5031759;28;70816;-32
2021/03/25 11:33:30;;;;;;;18.13;6.20;;;;;;;34.99;46.45;100677.94;5033136;28;65722;-31
2021/03/25 11:36:02;;;;;;;15.68;6.40;;;;;;;35.02;46.45;100691.06;5034015;28;69929;-32
2021/03/25 11:38:38;;;;;;;15.57;6.68;;;;;;;34.67;46.64;100651.38;5028858;28;65521;-32
2021/03/25 11:41:30;;;;;;;14.80;6.78;;;;;;;34.95;46.47;100703.25;5030087;27;69273;-29
2021/03/25 11:44:01;;;;;;;;;;;;;;;34.84;46.62;100710.44;5029459;28;66169;-32
2021/03/25 11:46:32;;;;;;;20.55;8.27;;;;;;;34.87;46.26;100708.03;5030721;28;69405;-31
2021/03/25 11:49:16;;;;;;;19.73;8.68;;;;;;;34.80;46.42;100722.91;5034636;28;65959;-32
2021/03/25 11:51:51;;;;;;;23.08;7.70;;;;;;;34.80;46.96;100733.81;5035183;28;69877;-28
2021/03/25 11:54:29;;;;;;;26.15;8.63;;;;;;;34.61;47.15;100714.22;5038034;28;65059;-29
2021/03/25 11:57:20;;;;;;;21.95;8.15;;;;;;;34.63;47.14;100729.25;5038245;28;69082;-28
2021/03/25 12:00:02;;;;;;;29.33;8.20;;;;;;;34.70;47.00;100731.78;5037303;28;64509;-29
2021/03/25 12:02:39;;;;;;;12.70;7.15;;;;;;;34.64;46.88;100730.88;5031093;28;69365;-33
2021/03/25 12:05:29;;;;;;;15.63;8.00;;;;;;;34.58;47.56;100731.88;5042382;27;66124;-29
2021/03/25 12:08:13;;;;;;;19.75;7.50;;;;;;;34.60;47.08;100735.19;5033688;28;70028;-30
2021/03/25 12:10:43;;;;;;;26.58;7.93;;;;;;;34.58;47.11;100737.31;5023011;28;66173;-30
2021/03/25 12:13:15;;;;;;;18.38;7.30;;;;;;;34.58;47.56;100740.06;5035416;28;70115;-33
2021/03/25 12:15:45;;;;;;;17.55;6.60;;;;;;;34.48;46.93;100737.13;5024312;28;64978;-30
2021/03/25 12:18:28;;;;;;;17.15;6.47;;;;;;;34.31;45.76;100747.22;5034780;28;70866;-30
2021/03/25 12:21:04;;;;;;;11.68;6.22;;;;;;;34.18;45.76;100749.16;5042144;28;65396;-29
2021/03/25 12:23:39;;;;;;;12.80;5.05;;;;;;;33.99;45.19;100753.16;5036216;28;70189;-29
2021/03/25 12:26:13;;;;;;;10.05;4.68;;;;;;;33.78;44.17;100750.06;5004648;28;66094;-30
2021/03/25 12:28:42;;;;;;;4.18;3.75;;;;;;;33.76;44.05;100763.06;5037738;28;70435;-29
2021/03/25 12:31:17;;;;;;;6.95;4.18;;;;;;;33.72;42.86;100780.97;5046443;28;65984;-32